sensor_id;sensor_type;location;lat;lon;timestamp;P1;durP1;ratioP1;P2;durP2;ratioP2
21215;SDS011;10765;50.954;5.322;2022-10-30T00:02:06;12.67;;;6.83;;
21215;SDS011;10765;50.954;5.322;2022-10-30T00:04:33;9.07;;;6.77;;
21215;SDS011;10765;50.954;5.322;2022-10-30T00:07:00;14.57;;;7.30;;
21215;SDS011;10765;50.954;5.322;2022-10-30T00:09:27;8.50;;;6.57;;
21215;SDS011;10765;50.954;5.322;2022-10-30T00:11:55;9.13;;;6.70;;
21215;SDS011;10765;50.954;5.322;2022-10-30T00:14:22;7.07;;;6.07;;
21215;SDS011;10765;50.954;5.322;2022-10-30T00:16:49;8.63;;;6.40;;
21215;SDS011;10765;50.954;5.322;2022-10-30T00:19:15;8.20;;;6.33;;
21215;SDS011;10765;50.954;5.322;2022-10-30T00:21:42;8.33;;;6.77;;
21215;SDS011;10765;50.954;5.322;2022-10-30T00:24:09;8.97;;;6.50;;
21215;SDS011;10765;50.954;5.322;2022-10-30T00:26:36;11.53;;;7.07;;
21215;SDS011;10765;50.954;5.322;2022-10-30T00:29:04;8.80;;;6.30;;
21215;SDS011;10765;50.954;5.322;2022-10-30T00:31:31;12.23;;;6.33;;
21215;SDS011;10765;50.954;5.322;2022-10-30T00:33:58;10.10;;;7.17;;
21215;SDS011;10765;50.954;5.322;2022-10-30T00:36:25;8.73;;;6.77;;
21215;SDS011;10765;50.954;5.322;2022-10-30T00:38:55;24.47;;;8.77;;
21215;SDS011;10765;50.954;5.322;2022-10-30T00:41:23;24.97;;;8.80;;
21215;SDS011;10765;50.954;5.322;2022-10-30T00:43:50;30.37;;;8.10;;
21215;SDS011;10765;50.954;5.322;2022-10-30T00:46:20;10.73;;;7.20;;
21215;SDS011;10765;50.954;5.322;2022-10-30T00:48:53;11.07;;;7.33;;
21215;SDS011;10765;50.954;5.322;2022-10-30T00:51:23;10.43;;;6.83;;
21215;SDS011;10765;50.954;5.322;2022-10-30T00:53:50;11.37;;;7.20;;
21215;SDS011;10765;50.954;5.322;2022-10-30T00:56:19;11.93;;;6.60;;
21215;SDS011;10765;50.954;5.322;2022-10-30T00:58:49;9.27;;;6.80;;
21215;SDS011;10765;50.954;5.322;2022-10-30T01:01:20;10.27;;;7.43;;
21215;SDS011;10765;50.954;5.322;2022-10-30T01:03:50;11.30;;;7.53;;
21215;SDS011;10765;50.954;5.322;2022-10-30T01:06:20;9.07;;;6.30;;
21215;SDS011;10765;50.954;5.322;2022-10-30T01:08:49;11.23;;;7.00;;
21215;SDS011;10765;50.954;5.322;2022-10-30T01:11:20;11.67;;;7.27;;
21215;SDS011;10765;50.954;5.322;2022-10-30T01:13:47;10.87;;;7.53;;
21215;SDS011;10765;50.954;5.322;2022-10-30T01:19:14;16.97;;;7.70;;
21215;SDS011;10765;50.954;5.322;2022-10-30T01:21:49;9.20;;;6.47;;
21215;SDS011;10765;50.954;5.322;2022-10-30T01:24:30;10.23;;;7.30;;
21215;SDS011;10765;50.954;5.322;2022-10-30T01:27:07;9.97;;;7.47;;
21215;SDS011;10765;50.954;5.322;2022-10-30T01:29:49;10.13;;;7.37;;
21215;SDS011;10765;50.954;5.322;2022-10-30T01:32:30;10.50;;;7.27;;
21215;SDS011;10765;50.954;5.322;2022-10-30T01:35:08;9.93;;;7.53;;
21215;SDS011;10765;50.954;5.322;2022-10-30T01:37:38;9.17;;;7.30;;
21215;SDS011;10765;50.954;5.322;2022-10-30T01:40:13;9.50;;;7.60;;
21215;SDS011;10765;50.954;5.322;2022-10-30T01:42:43;9.87;;;8.00;;
21215;SDS011;10765;50.954;5.322;2022-10-30T01:45:14;8.93;;;6.53;;
21215;SDS011;10765;50.954;5.322;2022-10-30T01:47:52;8.27;;;6.80;;
21215;SDS011;10765;50.954;5.322;2022-10-30T01:50:36;13.07;;;7.13;;
21215;SDS011;10765;50.954;5.322;2022-10-30T01:53:12;9.07;;;7.07;;
21215;SDS011;10765;50.954;5.322;2022-10-30T01:55:49;12.63;;;8.37;;
21215;SDS011;10765;50.954;5.322;2022-10-30T01:58:24;11.87;;;7.80;;
21215;SDS011;10765;50.954;5.322;2022-10-30T02:00:57;13.87;;;8.97;;
21215;SDS011;10765;50.954;5.322;2022-10-30T02:03:26;13.30;;;8.17;;
21215;SDS011;10765;50.954;5.322;2022-10-30T02:05:54;10.83;;;7.77;;
21215;SDS011;10765;50.954;5.322;2022-10-30T02:08:21;9.40;;;7.17;;
21215;SDS011;10765;50.954;5.322;2022-10-30T02:10:48;13.10;;;7.90;;
21215;SDS011;10765;50.954;5.322;2022-10-30T02:13:17;7.60;;;6.77;;
21215;SDS011;10765;50.954;5.322;2022-10-30T02:15:45;11.87;;;7.47;;
21215;SDS011;10765;50.954;5.322;2022-10-30T02:18:13;12.60;;;7.10;;
21215;SDS011;10765;50.954;5.322;2022-10-30T02:20:42;10.33;;;6.80;;
21215;SDS011;10765;50.954;5.322;2022-10-30T02:23:09;10.80;;;7.50;;
21215;SDS011;10765;50.954;5.322;2022-10-30T02:25:42;9.90;;;6.90;;
21215;SDS011;10765;50.954;5.322;2022-10-30T02:28:09;10.97;;;7.13;;
21215;SDS011;10765;50.954;5.322;2022-10-30T02:30:36;8.47;;;6.70;;
21215;SDS011;10765;50.954;5.322;2022-10-30T02:33:04;11.53;;;7.43;;
21215;SDS011;10765;50.954;5.322;2022-10-30T02:35:30;11.70;;;7.27;;
21215;SDS011;10765;50.954;5.322;2022-10-30T02:38:00;10.43;;;7.30;;
21215;SDS011;10765;50.954;5.322;2022-10-30T02:40:27;12.37;;;7.33;;
21215;SDS011;10765;50.954;5.322;2022-10-30T02:42:54;11.93;;;7.67;;
21215;SDS011;10765;50.954;5.322;2022-10-30T02:45:21;8.73;;;7.27;;
21215;SDS011;10765;50.954;5.322;2022-10-30T02:47:48;11.90;;;7.30;;
21215;SDS011;10765;50.954;5.322;2022-10-30T02:50:15;10.97;;;6.80;;
21215;SDS011;10765;50.954;5.322;2022-10-30T02:52:42;10.27;;;6.97;;
21215;SDS011;10765;50.954;5.322;2022-10-30T02:55:10;10.37;;;6.43;;
21215;SDS011;10765;50.954;5.322;2022-10-30T02:57:37;9.60;;;6.73;;
21215;SDS011;10765;50.954;5.322;2022-10-30T03:00:04;10.80;;;6.80;;
21215;SDS011;10765;50.954;5.322;2022-10-30T03:02:32;11.63;;;6.40;;
21215;SDS011;10765;50.954;5.322;2022-10-30T03:04:59;11.57;;;6.47;;
21215;SDS011;10765;50.954;5.322;2022-10-30T03:07:26;8.50;;;6.80;;
21215;SDS011;10765;50.954;5.322;2022-10-30T03:09:53;8.83;;;6.87;;
21215;SDS011;10765;50.954;5.322;2022-10-30T03:12:21;10.00;;;7.27;;
21215;SDS011;10765;50.954;5.322;2022-10-30T03:14:48;12.13;;;7.10;;
21215;SDS011;10765;50.954;5.322;2022-10-30T03:17:19;12.90;;;7.50;;
21215;SDS011;10765;50.954;5.322;2022-10-30T03:19:46;10.60;;;6.97;;
21215;SDS011;10765;50.954;5.322;2022-10-30T03:22:15;11.60;;;7.20;;
21215;SDS011;10765;50.954;5.322;2022-10-30T03:24:42;9.50;;;6.97;;
21215;SDS011;10765;50.954;5.322;2022-10-30T03:27:09;11.40;;;6.33;;
21215;SDS011;10765;50.954;5.322;2022-10-30T03:29:37;9.10;;;6.73;;
21215;SDS011;10765;50.954;5.322;2022-10-30T03:32:07;8.73;;;6.73;;
21215;SDS011;10765;50.954;5.322;2022-10-30T03:34:34;10.73;;;6.63;;
21215;SDS011;10765;50.954;5.322;2022-10-30T03:37:01;7.87;;;6.43;;
21215;SDS011;10765;50.954;5.322;2022-10-30T03:39:29;11.50;;;7.00;;
21215;SDS011;10765;50.954;5.322;2022-10-30T03:41:56;11.07;;;7.37;;
21215;SDS011;10765;50.954;5.322;2022-10-30T03:44:23;11.73;;;7.00;;
21215;SDS011;10765;50.954;5.322;2022-10-30T03:46:51;10.07;;;7.50;;
21215;SDS011;10765;50.954;5.322;2022-10-30T03:49:18;9.20;;;7.43;;
21215;SDS011;10765;50.954;5.322;2022-10-30T03:51:45;11.40;;;7.90;;
21215;SDS011;10765;50.954;5.322;2022-10-30T03:54:12;9.30;;;6.87;;
21215;SDS011;10765;50.954;5.322;2022-10-30T03:56:39;12.73;;;7.63;;
21215;SDS011;10765;50.954;5.322;2022-10-30T03:59:06;12.93;;;7.50;;
21215;SDS011;10765;50.954;5.322;2022-10-30T04:01:33;12.60;;;7.63;;
21215;SDS011;10765;50.954;5.322;2022-10-30T04:04:01;12.43;;;8.10;;
21215;SDS011;10765;50.954;5.322;2022-10-30T04:06:27;11.77;;;7.77;;
21215;SDS011;10765;50.954;5.322;2022-10-30T04:08:54;11.67;;;8.10;;
21215;SDS011;10765;50.954;5.322;2022-10-30T04:11:21;12.97;;;7.27;;
21215;SDS011;10765;50.954;5.322;2022-10-30T04:13:48;12.40;;;7.20;;
21215;SDS011;10765;50.954;5.322;2022-10-30T04:16:15;9.57;;;7.63;;
21215;SDS011;10765;50.954;5.322;2022-10-30T04:18:42;13.63;;;7.83;;
21215;SDS011;10765;50.954;5.322;2022-10-30T04:21:10;8.10;;;7.20;;
21215;SDS011;10765;50.954;5.322;2022-10-30T04:23:37;10.73;;;6.77;;
21215;SDS011;10765;50.954;5.322;2022-10-30T04:26:04;9.73;;;7.57;;
21215;SDS011;10765;50.954;5.322;2022-10-30T04:28:31;9.17;;;7.30;;
21215;SDS011;10765;50.954;5.322;2022-10-30T04:30:58;7.63;;;6.83;;
21215;SDS011;10765;50.954;5.322;2022-10-30T04:33:24;11.13;;;6.90;;
21215;SDS011;10765;50.954;5.322;2022-10-30T04:35:52;7.70;;;6.73;;
21215;SDS011;10765;50.954;5.322;2022-10-30T04:38:21;8.90;;;7.83;;
21215;SDS011;10765;50.954;5.322;2022-10-30T04:40:47;18.60;;;8.87;;
21215;SDS011;10765;50.954;5.322;2022-10-30T04:43:14;10.20;;;7.73;;
21215;SDS011;10765;50.954;5.322;2022-10-30T04:45:44;12.07;;;8.53;;
21215;SDS011;10765;50.954;5.322;2022-10-30T04:48:11;12.60;;;7.83;;
21215;SDS011;10765;50.954;5.322;2022-10-30T04:50:40;9.33;;;7.53;;
21215;SDS011;10765;50.954;5.322;2022-10-30T04:53:09;11.57;;;7.87;;
21215;SDS011;10765;50.954;5.322;2022-10-30T04:55:40;11.47;;;7.77;;
21215;SDS011;10765;50.954;5.322;2022-10-30T04:58:08;9.23;;;7.67;;
21215;SDS011;10765;50.954;5.322;2022-10-30T05:00:36;11.83;;;7.73;;
21215;SDS011;10765;50.954;5.322;2022-10-30T05:03:03;10.70;;;7.37;;
21215;SDS011;10765;50.954;5.322;2022-10-30T05:05:30;11.90;;;7.57;;
21215;SDS011;10765;50.954;5.322;2022-10-30T05:07:57;10.10;;;7.03;;
21215;SDS011;10765;50.954;5.322;2022-10-30T05:10:24;11.73;;;7.33;;
21215;SDS011;10765;50.954;5.322;2022-10-30T05:12:52;9.10;;;6.63;;
21215;SDS011;10765;50.954;5.322;2022-10-30T05:15:19;8.47;;;7.00;;
21215;SDS011;10765;50.954;5.322;2022-10-30T05:17:49;11.00;;;7.43;;
21215;SDS011;10765;50.954;5.322;2022-10-30T05:20:16;14.53;;;7.87;;
21215;SDS011;10765;50.954;5.322;2022-10-30T05:22:43;12.70;;;8.07;;
21215;SDS011;10765;50.954;5.322;2022-10-30T05:25:10;12.80;;;8.23;;
21215;SDS011;10765;50.954;5.322;2022-10-30T05:27:37;13.07;;;7.53;;
21215;SDS011;10765;50.954;5.322;2022-10-30T05:30:06;12.67;;;8.27;;
21215;SDS011;10765;50.954;5.322;2022-10-30T05:32:33;10.30;;;7.80;;
21215;SDS011;10765;50.954;5.322;2022-10-30T05:35:00;11.50;;;8.70;;
21215;SDS011;10765;50.954;5.322;2022-10-30T05:37:27;14.13;;;8.60;;
21215;SDS011;10765;50.954;5.322;2022-10-30T05:39:54;9.87;;;8.00;;
21215;SDS011;10765;50.954;5.322;2022-10-30T05:42:21;11.57;;;8.07;;
21215;SDS011;10765;50.954;5.322;2022-10-30T05:44:48;13.50;;;8.47;;
21215;SDS011;10765;50.954;5.322;2022-10-30T05:47:16;12.27;;;6.97;;
21215;SDS011;10765;50.954;5.322;2022-10-30T05:49:43;9.70;;;7.43;;
21215;SDS011;10765;50.954;5.322;2022-10-30T05:52:09;10.27;;;7.73;;
21215;SDS011;10765;50.954;5.322;2022-10-30T05:54:36;10.33;;;7.57;;
21215;SDS011;10765;50.954;5.322;2022-10-30T05:57:03;11.03;;;8.43;;
21215;SDS011;10765;50.954;5.322;2022-10-30T05:59:30;10.87;;;8.60;;
21215;SDS011;10765;50.954;5.322;2022-10-30T06:01:57;15.63;;;9.10;;
21215;SDS011;10765;50.954;5.322;2022-10-30T06:04:25;13.63;;;9.50;;
21215;SDS011;10765;50.954;5.322;2022-10-30T06:06:52;13.90;;;9.03;;
21215;SDS011;10765;50.954;5.322;2022-10-30T06:09:19;11.63;;;9.07;;
21215;SDS011;10765;50.954;5.322;2022-10-30T06:11:46;14.50;;;9.90;;
21215;SDS011;10765;50.954;5.322;2022-10-30T06:14:12;12.93;;;9.27;;
21215;SDS011;10765;50.954;5.322;2022-10-30T06:16:39;10.37;;;7.70;;
21215;SDS011;10765;50.954;5.322;2022-10-30T06:19:06;13.40;;;8.87;;
21215;SDS011;10765;50.954;5.322;2022-10-30T06:21:34;13.17;;;9.67;;
21215;SDS011;10765;50.954;5.322;2022-10-30T06:24:01;15.33;;;8.63;;
21215;SDS011;10765;50.954;5.322;2022-10-30T06:26:28;12.40;;;9.23;;
21215;SDS011;10765;50.954;5.322;2022-10-30T06:28:55;14.70;;;9.10;;
21215;SDS011;10765;50.954;5.322;2022-10-30T06:31:22;15.97;;;9.77;;
21215;SDS011;10765;50.954;5.322;2022-10-30T06:33:49;13.03;;;9.27;;
21215;SDS011;10765;50.954;5.322;2022-10-30T06:36:16;10.83;;;7.73;;
21215;SDS011;10765;50.954;5.322;2022-10-30T06:38:44;14.33;;;10.50;;
21215;SDS011;10765;50.954;5.322;2022-10-30T06:41:11;16.13;;;9.67;;
21215;SDS011;10765;50.954;5.322;2022-10-30T06:43:38;13.93;;;10.00;;
21215;SDS011;10765;50.954;5.322;2022-10-30T06:46:04;13.67;;;9.03;;
21215;SDS011;10765;50.954;5.322;2022-10-30T06:48:31;17.67;;;10.00;;
21215;SDS011;10765;50.954;5.322;2022-10-30T06:50:58;15.70;;;9.50;;
21215;SDS011;10765;50.954;5.322;2022-10-30T06:53:27;12.50;;;9.63;;
21215;SDS011;10765;50.954;5.322;2022-10-30T06:55:55;15.63;;;9.87;;
21215;SDS011;10765;50.954;5.322;2022-10-30T06:58:23;13.17;;;9.50;;
21215;SDS011;10765;50.954;5.322;2022-10-30T07:00:51;8.47;;;6.67;;
21215;SDS011;10765;50.954;5.322;2022-10-30T07:03:18;9.50;;;6.87;;
21215;SDS011;10765;50.954;5.322;2022-10-30T07:05:46;15.07;;;7.93;;
21215;SDS011;10765;50.954;5.322;2022-10-30T07:08:13;9.80;;;7.33;;
21215;SDS011;10765;50.954;5.322;2022-10-30T07:10:40;10.73;;;6.40;;
21215;SDS011;10765;50.954;5.322;2022-10-30T07:13:08;9.57;;;7.20;;
21215;SDS011;10765;50.954;5.322;2022-10-30T07:15:35;9.93;;;7.37;;
21215;SDS011;10765;50.954;5.322;2022-10-30T07:18:02;12.07;;;7.90;;
21215;SDS011;10765;50.954;5.322;2022-10-30T07:20:31;14.70;;;7.53;;
21215;SDS011;10765;50.954;5.322;2022-10-30T07:23:02;8.83;;;7.43;;
21215;SDS011;10765;50.954;5.322;2022-10-30T07:25:29;10.70;;;7.67;;
21215;SDS011;10765;50.954;5.322;2022-10-30T07:27:56;11.03;;;7.20;;
21215;SDS011;10765;50.954;5.322;2022-10-30T07:30:25;13.30;;;8.47;;
21215;SDS011;10765;50.954;5.322;2022-10-30T07:32:56;11.73;;;8.30;;
21215;SDS011;10765;50.954;5.322;2022-10-30T07:35:26;11.60;;;6.87;;
21215;SDS011;10765;50.954;5.322;2022-10-30T07:37:55;10.37;;;7.00;;
21215;SDS011;10765;50.954;5.322;2022-10-30T07:40:26;21.30;;;7.87;;
21215;SDS011;10765;50.954;5.322;2022-10-30T07:42:56;16.73;;;8.07;;
21215;SDS011;10765;50.954;5.322;2022-10-30T07:45:24;18.80;;;9.03;;
21215;SDS011;10765;50.954;5.322;2022-10-30T07:47:52;13.00;;;9.53;;
21215;SDS011;10765;50.954;5.322;2022-10-30T07:50:19;11.10;;;7.20;;
21215;SDS011;10765;50.954;5.322;2022-10-30T07:52:46;9.40;;;5.93;;
21215;SDS011;10765;50.954;5.322;2022-10-30T07:55:13;10.90;;;6.37;;
21215;SDS011;10765;50.954;5.322;2022-10-30T07:57:41;8.33;;;5.77;;
21215;SDS011;10765;50.954;5.322;2022-10-30T08:00:08;9.60;;;5.57;;
21215;SDS011;10765;50.954;5.322;2022-10-30T08:02:38;10.23;;;6.17;;
21215;SDS011;10765;50.954;5.322;2022-10-30T08:05:05;11.77;;;6.13;;
21215;SDS011;10765;50.954;5.322;2022-10-30T08:07:33;8.00;;;5.43;;
21215;SDS011;10765;50.954;5.322;2022-10-30T08:10:01;21.93;;;7.13;;
21215;SDS011;10765;50.954;5.322;2022-10-30T08:12:28;10.00;;;5.93;;
21215;SDS011;10765;50.954;5.322;2022-10-30T08:14:57;10.20;;;5.80;;
21215;SDS011;10765;50.954;5.322;2022-10-30T08:17:24;8.33;;;5.60;;
21215;SDS011;10765;50.954;5.322;2022-10-30T08:19:52;6.97;;;5.77;;
21215;SDS011;10765;50.954;5.322;2022-10-30T08:22:21;7.93;;;5.37;;
21215;SDS011;10765;50.954;5.322;2022-10-30T08:24:48;7.93;;;5.30;;
21215;SDS011;10765;50.954;5.322;2022-10-30T08:27:14;10.23;;;5.80;;
21215;SDS011;10765;50.954;5.322;2022-10-30T08:29:41;10.80;;;6.00;;
21215;SDS011;10765;50.954;5.322;2022-10-30T08:32:08;9.20;;;5.27;;
21215;SDS011;10765;50.954;5.322;2022-10-30T08:34:35;11.73;;;5.83;;
21215;SDS011;10765;50.954;5.322;2022-10-30T08:37:03;7.93;;;5.47;;
21215;SDS011;10765;50.954;5.322;2022-10-30T08:39:31;8.80;;;5.87;;
21215;SDS011;10765;50.954;5.322;2022-10-30T08:41:58;9.70;;;5.50;;
21215;SDS011;10765;50.954;5.322;2022-10-30T08:44:25;8.17;;;5.47;;
21215;SDS011;10765;50.954;5.322;2022-10-30T08:46:52;7.27;;;5.17;;
21215;SDS011;10765;50.954;5.322;2022-10-30T08:49:20;8.20;;;4.80;;
21215;SDS011;10765;50.954;5.322;2022-10-30T08:51:46;8.93;;;5.30;;
21215;SDS011;10765;50.954;5.322;2022-10-30T08:54:15;10.70;;;5.23;;
21215;SDS011;10765;50.954;5.322;2022-10-30T08:56:41;7.80;;;5.10;;
21215;SDS011;10765;50.954;5.322;2022-10-30T08:59:08;11.93;;;5.47;;
21215;SDS011;10765;50.954;5.322;2022-10-30T09:01:35;33.97;;;7.60;;
21215;SDS011;10765;50.954;5.322;2022-10-30T09:04:02;10.10;;;5.03;;
21215;SDS011;10765;50.954;5.322;2022-10-30T09:06:29;7.70;;;5.13;;
21215;SDS011;10765;50.954;5.322;2022-10-30T09:08:56;11.53;;;5.30;;
21215;SDS011;10765;50.954;5.322;2022-10-30T09:11:24;8.33;;;4.83;;
21215;SDS011;10765;50.954;5.322;2022-10-30T09:13:51;13.83;;;5.20;;
21215;SDS011;10765;50.954;5.322;2022-10-30T09:16:18;8.30;;;4.73;;
21215;SDS011;10765;50.954;5.322;2022-10-30T09:18:45;8.23;;;4.73;;
21215;SDS011;10765;50.954;5.322;2022-10-30T09:21:12;11.93;;;4.97;;
21215;SDS011;10765;50.954;5.322;2022-10-30T09:23:40;8.10;;;4.80;;
21215;SDS011;10765;50.954;5.322;2022-10-30T09:26:07;10.10;;;4.57;;
21215;SDS011;10765;50.954;5.322;2022-10-30T09:28:36;8.33;;;4.30;;
21215;SDS011;10765;50.954;5.322;2022-10-30T09:31:03;8.83;;;4.47;;
21215;SDS011;10765;50.954;5.322;2022-10-30T09:33:30;11.47;;;4.93;;
21215;SDS011;10765;50.954;5.322;2022-10-30T09:35:57;11.87;;;5.10;;
21215;SDS011;10765;50.954;5.322;2022-10-30T09:38:26;11.77;;;4.67;;
21215;SDS011;10765;50.954;5.322;2022-10-30T09:41:06;8.67;;;4.63;;
21215;SDS011;10765;50.954;5.322;2022-10-30T09:43:54;8.83;;;4.33;;
21215;SDS011;10765;50.954;5.322;2022-10-30T09:46:34;11.57;;;4.40;;
21215;SDS011;10765;50.954;5.322;2022-10-30T09:49:21;10.83;;;4.70;;
21215;SDS011;10765;50.954;5.322;2022-10-30T09:52:07;8.23;;;4.07;;
21215;SDS011;10765;50.954;5.322;2022-10-30T09:54:49;7.73;;;4.30;;
21215;SDS011;10765;50.954;5.322;2022-10-30T09:57:24;10.27;;;4.63;;
21215;SDS011;10765;50.954;5.322;2022-10-30T10:00:03;7.73;;;4.03;;
21215;SDS011;10765;50.954;5.322;2022-10-30T10:02:34;6.73;;;3.97;;
21215;SDS011;10765;50.954;5.322;2022-10-30T10:05:04;8.20;;;4.47;;
21215;SDS011;10765;50.954;5.322;2022-10-30T10:07:41;9.10;;;4.63;;
21215;SDS011;10765;50.954;5.322;2022-10-30T10:10:13;8.70;;;4.97;;
21215;SDS011;10765;50.954;5.322;2022-10-30T10:12:45;6.83;;;4.33;;
21215;SDS011;10765;50.954;5.322;2022-10-30T10:15:19;9.77;;;4.30;;
21215;SDS011;10765;50.954;5.322;2022-10-30T10:17:50;10.80;;;4.57;;
21215;SDS011;10765;50.954;5.322;2022-10-30T10:20:22;8.93;;;4.10;;
21215;SDS011;10765;50.954;5.322;2022-10-30T10:22:55;10.20;;;4.43;;
21215;SDS011;10765;50.954;5.322;2022-10-30T10:25:25;10.43;;;4.47;;
21215;SDS011;10765;50.954;5.322;2022-10-30T10:27:58;11.23;;;4.47;;
21215;SDS011;10765;50.954;5.322;2022-10-30T10:30:37;10.03;;;4.50;;
21215;SDS011;10765;50.954;5.322;2022-10-30T10:33:19;7.17;;;4.23;;
21215;SDS011;10765;50.954;5.322;2022-10-30T10:36:00;6.13;;;4.00;;
21215;SDS011;10765;50.954;5.322;2022-10-30T10:38:37;26.10;;;5.70;;
21215;SDS011;10765;50.954;5.322;2022-10-30T10:41:14;7.63;;;4.00;;
21215;SDS011;10765;50.954;5.322;2022-10-30T10:43:56;9.23;;;4.37;;
21215;SDS011;10765;50.954;5.322;2022-10-30T10:46:33;11.37;;;4.37;;
21215;SDS011;10765;50.954;5.322;2022-10-30T10:49:12;10.10;;;3.90;;
21215;SDS011;10765;50.954;5.322;2022-10-30T10:51:52;10.37;;;4.10;;
21215;SDS011;10765;50.954;5.322;2022-10-30T10:54:22;9.63;;;4.43;;
21215;SDS011;10765;50.954;5.322;2022-10-30T10:56:53;9.83;;;4.63;;
21215;SDS011;10765;50.954;5.322;2022-10-30T10:59:22;6.77;;;4.30;;
21215;SDS011;10765;50.954;5.322;2022-10-30T11:01:57;7.27;;;3.87;;
21215;SDS011;10765;50.954;5.322;2022-10-30T11:04:37;7.43;;;3.80;;
21215;SDS011;10765;50.954;5.322;2022-10-30T11:07:20;6.13;;;3.70;;
21215;SDS011;10765;50.954;5.322;2022-10-30T11:09:49;7.97;;;4.20;;
21215;SDS011;10765;50.954;5.322;2022-10-30T11:12:18;8.37;;;4.00;;
21215;SDS011;10765;50.954;5.322;2022-10-30T11:14:48;9.33;;;4.40;;
21215;SDS011;10765;50.954;5.322;2022-10-30T11:17:18;5.57;;;3.97;;
21215;SDS011;10765;50.954;5.322;2022-10-30T11:19:50;7.10;;;4.17;;
21215;SDS011;10765;50.954;5.322;2022-10-30T11:22:24;9.53;;;4.07;;
21215;SDS011;10765;50.954;5.322;2022-10-30T11:24:55;9.37;;;4.43;;
21215;SDS011;10765;50.954;5.322;2022-10-30T11:27:43;6.47;;;3.83;;
21215;SDS011;10765;50.954;5.322;2022-10-30T11:30:15;9.23;;;4.30;;
21215;SDS011;10765;50.954;5.322;2022-10-30T11:32:45;10.20;;;3.97;;
21215;SDS011;10765;50.954;5.322;2022-10-30T11:35:12;11.67;;;4.70;;
21215;SDS011;10765;50.954;5.322;2022-10-30T11:37:41;7.80;;;4.30;;
21215;SDS011;10765;50.954;5.322;2022-10-30T11:40:15;10.33;;;4.50;;
21215;SDS011;10765;50.954;5.322;2022-10-30T11:42:44;8.03;;;4.37;;
21215;SDS011;10765;50.954;5.322;2022-10-30T11:45:14;9.13;;;4.40;;
21215;SDS011;10765;50.954;5.322;2022-10-30T11:47:45;9.90;;;4.40;;
21215;SDS011;10765;50.954;5.322;2022-10-30T11:50:14;10.27;;;5.00;;
21215;SDS011;10765;50.954;5.322;2022-10-30T11:52:44;9.13;;;4.40;;
21215;SDS011;10765;50.954;5.322;2022-10-30T11:55:13;10.63;;;4.40;;
21215;SDS011;10765;50.954;5.322;2022-10-30T11:57:44;7.90;;;4.53;;
21215;SDS011;10765;50.954;5.322;2022-10-30T12:00:14;10.73;;;4.40;;
21215;SDS011;10765;50.954;5.322;2022-10-30T12:02:45;6.33;;;3.90;;
21215;SDS011;10765;50.954;5.322;2022-10-30T12:05:32;8.57;;;4.37;;
21215;SDS011;10765;50.954;5.322;2022-10-30T12:08:18;11.73;;;4.93;;
21215;SDS011;10765;50.954;5.322;2022-10-30T12:10:53;9.00;;;4.43;;
21215;SDS011;10765;50.954;5.322;2022-10-30T12:13:24;9.77;;;4.13;;
21215;SDS011;10765;50.954;5.322;2022-10-30T12:16:02;9.13;;;4.63;;
21215;SDS011;10765;50.954;5.322;2022-10-30T12:18:41;9.97;;;4.30;;
21215;SDS011;10765;50.954;5.322;2022-10-30T12:21:16;9.23;;;4.20;;
21215;SDS011;10765;50.954;5.322;2022-10-30T12:23:48;10.73;;;4.60;;
21215;SDS011;10765;50.954;5.322;2022-10-30T12:26:18;7.70;;;3.93;;
21215;SDS011;10765;50.954;5.322;2022-10-30T12:28:47;9.27;;;4.40;;
21215;SDS011;10765;50.954;5.322;2022-10-30T12:31:21;20.53;;;5.07;;
21215;SDS011;10765;50.954;5.322;2022-10-30T12:34:00;24.40;;;6.17;;
21215;SDS011;10765;50.954;5.322;2022-10-30T12:36:32;9.33;;;4.47;;
21215;SDS011;10765;50.954;5.322;2022-10-30T12:39:02;11.03;;;4.30;;
21215;SDS011;10765;50.954;5.322;2022-10-30T12:41:38;10.90;;;4.30;;
21215;SDS011;10765;50.954;5.322;2022-10-30T12:44:09;9.63;;;4.57;;
21215;SDS011;10765;50.954;5.322;2022-10-30T12:46:41;6.77;;;4.20;;
21215;SDS011;10765;50.954;5.322;2022-10-30T12:49:16;21.77;;;5.50;;
21215;SDS011;10765;50.954;5.322;2022-10-30T12:51:50;13.70;;;4.87;;
21215;SDS011;10765;50.954;5.322;2022-10-30T12:54:23;15.07;;;4.40;;
21215;SDS011;10765;50.954;5.322;2022-10-30T12:56:55;9.07;;;4.00;;
21215;SDS011;10765;50.954;5.322;2022-10-30T12:59:33;16.03;;;5.10;;
21215;SDS011;10765;50.954;5.322;2022-10-30T13:02:09;10.37;;;4.10;;
21215;SDS011;10765;50.954;5.322;2022-10-30T13:04:46;10.60;;;4.23;;
21215;SDS011;10765;50.954;5.322;2022-10-30T13:07:21;9.83;;;4.00;;
21215;SDS011;10765;50.954;5.322;2022-10-30T13:09:56;11.03;;;4.17;;
21215;SDS011;10765;50.954;5.322;2022-10-30T13:12:38;7.20;;;3.83;;
21215;SDS011;10765;50.954;5.322;2022-10-30T13:15:13;10.60;;;4.03;;
21215;SDS011;10765;50.954;5.322;2022-10-30T13:17:46;10.43;;;4.00;;
21215;SDS011;10765;50.954;5.322;2022-10-30T13:20:14;10.33;;;4.40;;
21215;SDS011;10765;50.954;5.322;2022-10-30T13:22:42;6.20;;;3.30;;
21215;SDS011;10765;50.954;5.322;2022-10-30T13:25:15;7.53;;;4.03;;
21215;SDS011;10765;50.954;5.322;2022-10-30T13:27:47;12.40;;;4.10;;
21215;SDS011;10765;50.954;5.322;2022-10-30T13:30:19;9.90;;;4.37;;
21215;SDS011;10765;50.954;5.322;2022-10-30T13:32:52;10.27;;;4.03;;
21215;SDS011;10765;50.954;5.322;2022-10-30T13:35:32;10.73;;;4.40;;
21215;SDS011;10765;50.954;5.322;2022-10-30T13:38:11;11.37;;;4.43;;
21215;SDS011;10765;50.954;5.322;2022-10-30T13:40:49;9.00;;;4.90;;
21215;SDS011;10765;50.954;5.322;2022-10-30T13:43:23;13.07;;;4.43;;
21215;SDS011;10765;50.954;5.322;2022-10-30T13:46:07;6.83;;;4.73;;
21215;SDS011;10765;50.954;5.322;2022-10-30T13:48:47;7.93;;;4.50;;
21215;SDS011;10765;50.954;5.322;2022-10-30T13:51:28;10.03;;;4.40;;
21215;SDS011;10765;50.954;5.322;2022-10-30T13:54:06;10.87;;;4.80;;
21215;SDS011;10765;50.954;5.322;2022-10-30T13:56:40;8.50;;;4.70;;
21215;SDS011;10765;50.954;5.322;2022-10-30T13:59:12;13.67;;;5.23;;
21215;SDS011;10765;50.954;5.322;2022-10-30T14:01:57;9.27;;;4.70;;
21215;SDS011;10765;50.954;5.322;2022-10-30T14:04:31;9.63;;;5.03;;
21215;SDS011;10765;50.954;5.322;2022-10-30T14:07:07;11.40;;;4.57;;
21215;SDS011;10765;50.954;5.322;2022-10-30T14:09:45;10.93;;;4.77;;
21215;SDS011;10765;50.954;5.322;2022-10-30T14:15:14;10.33;;;4.73;;
21215;SDS011;10765;50.954;5.322;2022-10-30T14:20:49;7.70;;;4.77;;
21215;SDS011;10765;50.954;5.322;2022-10-30T14:23:20;10.80;;;5.30;;
21215;SDS011;10765;50.954;5.322;2022-10-30T14:28:45;10.57;;;4.70;;
21215;SDS011;10765;50.954;5.322;2022-10-30T14:31:14;9.23;;;5.23;;
21215;SDS011;10765;50.954;5.322;2022-10-30T14:33:52;22.60;;;5.70;;
21215;SDS011;10765;50.954;5.322;2022-10-30T14:36:20;10.27;;;5.03;;
21215;SDS011;10765;50.954;5.322;2022-10-30T14:38:54;13.57;;;5.10;;
21215;SDS011;10765;50.954;5.322;2022-10-30T14:41:30;7.17;;;4.60;;
21215;SDS011;10765;50.954;5.322;2022-10-30T14:44:11;9.27;;;5.13;;
21215;SDS011;10765;50.954;5.322;2022-10-30T14:46:47;9.47;;;4.83;;
21215;SDS011;10765;50.954;5.322;2022-10-30T14:49:35;10.73;;;5.57;;
21215;SDS011;10765;50.954;5.322;2022-10-30T14:52:21;11.90;;;5.30;;
21215;SDS011;10765;50.954;5.322;2022-10-30T14:55:01;8.90;;;5.23;;
21215;SDS011;10765;50.954;5.322;2022-10-30T14:57:44;11.20;;;4.80;;
21215;SDS011;10765;50.954;5.322;2022-10-30T15:03:04;11.40;;;4.90;;
21215;SDS011;10765;50.954;5.322;2022-10-30T15:05:38;7.23;;;4.50;;
21215;SDS011;10765;50.954;5.322;2022-10-30T15:11:18;8.87;;;5.57;;
21215;SDS011;10765;50.954;5.322;2022-10-30T15:13:52;8.70;;;5.60;;
21215;SDS011;10765;50.954;5.322;2022-10-30T15:16:22;12.43;;;6.03;;
21215;SDS011;10765;50.954;5.322;2022-10-30T15:18:57;11.43;;;6.33;;